Time;durP1;ratioP1;P1;durP2;ratioP2;P2;SDS_P1;SDS_P2;PMS_P1;PMS_P2;Temp;Humidity;BMP_temperature;BMP_pressure;BME280_temperature;BME280_humidity;BME280_pressure;Samples;Min_cycle;Max_cycle;Signal;HPM_P1;HPM_P2
2023/05/02 00:00:21;;;;;;;6.10;4.93;;;11.40;99.90;;;;;;5062653;28;21004;-75
2023/05/02 00:02:48;;;;;;;7.70;5.87;;;11.30;99.90;;;;;;5059059;28;20465;-75
2023/05/02 00:05:15;;;;;;;7.80;7.10;;;11.30;99.90;;;;;;5063618;28;20479;-75
2023/05/02 00:07:43;;;;;;;9.70;5.33;;;11.30;99.90;;;;;;5061435;28;20514;-75
2023/05/02 00:10:10;;;;;;;5.23;4.77;;;11.30;99.90;;;;;;5060373;28;20468;-76
2023/05/02 00:12:37;;;;;;;5.77;5.27;;;11.30;99.90;;;;;;5064690;28;20448;-75
2023/05/02 00:15:05;;;;;;;9.90;6.07;;;11.30;99.90;;;;;;5055544;28;20868;-75
2023/05/02 00:17:32;;;;;;;6.37;5.33;;;11.30;99.90;;;;;;5053890;28;20441;-75
2023/05/02 00:20:00;;;;;;;7.23;6.40;;;11.40;99.90;;;;;;5056285;28;21060;-79
2023/05/02 00:22:27;;;;;;;7.23;6.37;;;11.30;99.90;;;;;;5057548;28;20956;-76
2023/05/02 00:24:58;;;;;;;6.67;6.03;;;11.40;99.90;;;;;;5050673;28;20534;-75
2023/05/02 00:27:25;;;;;;;11.83;7.97;;;11.40;99.90;;;;;;5053292;28;20448;-75
2023/05/02 00:29:53;;;;;;;10.17;7.63;;;11.40;99.90;;;;;;5055367;28;20506;-75
2023/05/02 00:32:20;;;;;;;10.73;7.20;;;11.50;99.90;;;;;;5062391;28;20872;-79
2023/05/02 00:34:47;;;;;;;8.97;7.50;;;11.50;99.90;;;;;;5061570;28;20865;-75
2023/05/02 00:37:14;;;;;;;8.13;6.47;;;11.50;99.90;;;;;;5054378;28;20433;-80
2023/05/02 00:39:41;;;;;;;8.90;6.87;;;11.60;99.90;;;;;;5058051;28;20458;-78
2023/05/02 00:42:09;;;;;;;6.33;5.73;;;11.60;99.90;;;;;;5066801;28;20490;-76
2023/05/02 00:44:36;;;;;;;7.17;6.47;;;11.60;99.90;;;;;;5060709;28;20523;-75
2023/05/02 00:47:03;;;;;;;7.37;6.67;;;11.60;99.90;;;;;;5048026;28;20549;-76
2023/05/02 00:49:31;;;;;;;7.43;6.63;;;11.50;99.90;;;;;;5063104;28;20482;-76
2023/05/02 00:51:58;;;;;;;7.40;6.60;;;11.50;99.90;;;;;;5054259;28;20531;-75
2023/05/02 00:54:25;;;;;;;7.47;6.70;;;11.50;99.90;;;;;;5054047;28;21106;-76
2023/05/02 00:56:52;;;;;;;7.03;6.33;;;11.50;99.90;;;;;;5050247;28;20466;-76
2023/05/02 00:59:21;;;;;;;7.83;7.10;;;11.50;99.90;;;;;;5059639;28;20449;-76
2023/05/02 01:01:57;;;;;;;6.30;5.60;;;11.50;99.90;;;;;;5053326;28;20548;-76
2023/05/02 01:04:34;;;;;;;8.17;6.83;;;11.50;99.90;;;;;;5054968;28;20443;-76
2023/05/02 01:07:14;;;;;;;8.03;7.23;;;11.50;99.90;;;;;;5059299;28;20490;-77
2023/05/02 01:09:53;;;;;;;7.70;7.10;;;11.50;99.90;;;;;;5049451;28;20464;-78
2023/05/02 01:12:28;;;;;;;9.23;8.37;;;11.60;99.90;;;;;;5052882;28;20521;-77
2023/05/02 01:14:58;;;;;;;8.87;8.10;;;11.60;99.90;;;;;;5056815;28;20440;-80
2023/05/02 01:17:32;;;;;;;9.60;8.80;;;11.60;99.90;;;;;;5063672;28;20977;-76
2023/05/02 01:20:03;;;;;;;10.57;9.47;;;11.60;99.90;;;;;;5056449;28;20513;-78
2023/05/02 01:22:31;;;;;;;10.17;9.27;;;11.60;99.90;;;;;;5059904;28;20441;-80
2023/05/02 01:25:18;;;;;;;10.40;9.50;;;11.60;99.90;;;;;;5066615;28;20514;-79
2023/05/02 01:27:53;;;;;;;9.90;9.10;;;11.60;99.90;;;;;;5066107;28;20459;-76
2023/05/02 01:30:24;;;;;;;9.27;8.17;;;11.60;99.90;;;;;;5064918;28;20462;-79
2023/05/02 01:32:53;;;;;;;12.30;8.97;;;11.60;99.90;;;;;;5065925;28;20818;-76
2023/05/02 01:35:22;;;;;;;9.40;8.60;;;11.70;99.90;;;;;;5068806;28;20517;-76
2023/05/02 01:37:52;;;;;;;9.73;8.93;;;11.70;99.90;;;;;;5067958;28;20460;-81
2023/05/02 01:40:21;;;;;;;10.57;9.47;;;11.60;99.90;;;;;;5074103;28;20529;-77
2023/05/02 01:42:50;;;;;;;9.87;9.07;;;11.60;99.90;;;;;;5076716;28;20462;-77
2023/05/02 01:45:19;;;;;;;8.77;8.03;;;11.60;99.90;;;;;;5081065;28;20476;-77
2023/05/02 01:47:48;;;;;;;13.20;9.50;;;11.60;99.90;;;;;;5070829;28;20518;-80
2023/05/02 01:50:20;;;;;;;9.13;8.33;;;11.50;99.90;;;;;;5067282;28;21134;-76
2023/05/02 01:52:48;;;;;;;10.30;9.30;;;11.50;99.90;;;;;;5062530;28;20932;-77
2023/05/02 01:55:17;;;;;;;8.47;7.80;;;11.50;99.90;;;;;;5059786;28;20975;-77
2023/05/02 01:57:49;;;;;;;8.67;7.87;;;11.50;99.90;;;;;;5062152;28;20517;-78
2023/05/02 02:00:18;;;;;;;8.17;7.17;;;11.50;99.90;;;;;;5056699;28;20461;-80
2023/05/02 02:02:47;;;;;;;7.03;6.43;;;11.50;99.90;;;;;;5059970;28;20501;-75
2023/05/02 02:05:14;;;;;;;7.33;6.73;;;11.50;99.90;;;;;;5063048;28;20480;-77
2023/05/02 02:07:43;;;;;;;9.80;8.23;;;11.60;99.90;;;;;;5065394;28;20456;-77
2023/05/02 02:10:10;;;;;;;8.83;8.10;;;11.60;99.90;;;;;;5063224;28;20448;-77
2023/05/02 02:12:41;;;;;;;8.70;6.40;;;11.50;99.90;;;;;;5066154;28;20518;-78
2023/05/02 02:15:16;;;;;;;8.93;8.07;;;11.50;99.90;;;;;;5062097;28;20487;-76
2023/05/02 02:17:49;;;;;;;12.53;8.40;;;11.50;99.90;;;;;;5066307;28;20841;-80
2023/05/02 02:20:18;;;;;;;13.57;6.67;;;11.50;99.90;;;;;;5047577;28;20475;-75
2023/05/02 02:22:47;;;;;;;6.03;5.43;;;11.50;99.90;;;;;;5050553;28;20437;-76
2023/05/02 02:25:16;;;;;;;13.43;6.80;;;11.40;99.90;;;;;;5054493;28;20476;-75
2023/05/02 02:27:44;;;;;;;9.47;5.63;;;11.40;99.90;;;;;;5063668;28;21033;-79
2023/05/02 02:30:11;;;;;;;5.10;4.60;;;11.40;99.90;;;;;;5059599;28;20457;-78
2023/05/02 02:32:39;;;;;;;5.23;4.77;;;11.40;99.90;;;;;;5058827;28;20526;-75
2023/05/02 02:35:08;;;;;;;5.10;3.77;;;11.40;99.90;;;;;;5059684;28;20832;-75
2023/05/02 02:37:40;;;;;;;3.77;3.37;;;11.40;99.90;;;;;;5062977;28;20526;-80
2023/05/02 02:40:17;;;;;;;3.80;3.33;;;11.40;99.90;;;;;;5066739;28;21166;-74
2023/05/02 02:42:50;;;;;;;2.80;2.60;;;11.40;99.90;;;;;;5062356;28;20452;-76
2023/05/02 02:45:30;;;;;;;3.60;3.03;;;11.50;99.90;;;;;;5060475;28;20476;-77
2023/05/02 02:48:15;;;;;;;2.17;2.07;;;11.40;99.90;;;;;;5067336;28;20463;-75
2023/05/02 02:50:54;;;;;;;2.60;2.20;;;11.30;99.90;;;;;;5057960;28;20939;-78
2023/05/02 02:53:36;;;;;;;2.33;2.23;;;11.30;99.90;;;;;;5063272;28;20943;-77
2023/05/02 02:56:07;;;;;;;2.57;2.30;;;11.30;99.90;;;;;;5058817;28;20505;-77
2023/05/02 02:58:57;;;;;;;2.37;2.00;;;11.30;99.90;;;;;;5064069;28;20460;-75
2023/05/02 03:01:27;;;;;;;3.33;3.00;;;11.30;99.90;;;;;;5062099;28;20461;-78
2023/05/02 03:03:56;;;;;;;2.23;2.03;;;11.20;99.90;;;;;;5056752;28;20452;-79
2023/05/02 03:06:26;;;;;;;1.90;1.80;;;11.20;99.90;;;;;;5060372;28;20481;-78
2023/05/02 03:08:53;;;;;;;2.00;1.80;;;11.20;99.90;;;;;;5057987;28;20477;-76
2023/05/02 03:11:20;;;;;;;3.20;2.00;;;11.20;99.90;;;;;;5061722;28;20503;-75
2023/05/02 03:13:47;;;;;;;2.10;1.90;;;11.20;99.90;;;;;;5053613;28;20942;-76
2023/05/02 03:16:36;;;;;;;3.27;2.40;;;11.20;99.90;;;;;;5066248;28;20480;-76
2023/05/02 03:19:04;;;;;;;2.57;1.60;;;11.10;99.90;;;;;;5047178;28;20534;-75
2023/05/02 03:21:32;;;;;;;1.87;1.70;;;11.10;99.90;;;;;;5050747;28;20448;-76
2023/05/02 03:24:00;;;;;;;2.37;1.83;;;11.10;99.90;;;;;;5050570;28;20913;-75
2023/05/02 03:26:27;;;;;;;1.67;1.57;;;11.20;99.90;;;;;;5058700;28;20484;-75
2023/05/02 03:28:55;;;;;;;1.50;1.40;;;11.20;99.90;;;;;;5059355;28;20452;-79
2023/05/02 03:31:22;;;;;;;1.27;1.17;;;11.10;99.90;;;;;;5065512;28;20689;-75
2023/05/02 03:33:50;;;;;;;1.87;1.70;;;11.10;99.90;;;;;;5060484;28;20513;-76
2023/05/02 03:36:17;;;;;;;2.20;2.00;;;11.10;99.90;;;;;;5061741;28;20448;-75
2023/05/02 03:38:45;;;;;;;1.43;1.23;;;11.10;99.90;;;;;;5058039;28;20492;-75
2023/05/02 03:41:12;;;;;;;1.50;1.40;;;11.10;99.90;;;;;;5065611;28;20444;-76
2023/05/02 03:43:39;;;;;;;1.23;1.10;;;11.10;99.90;;;;;;5058524;28;20449;-75
2023/05/02 03:46:08;;;;;;;1.50;1.40;;;11.10;99.90;;;;;;5054333;28;20476;-75
2023/05/02 03:48:35;;;;;;;1.27;1.17;;;11.10;99.90;;;;;;5060333;28;20555;-75
2023/05/02 03:51:03;;;;;;;2.50;1.53;;;11.10;99.90;;;;;;5064026;28;20884;-76
2023/05/02 03:53:30;;;;;;;1.53;1.43;;;11.10;99.90;;;;;;5061855;28;20498;-76
2023/05/02 03:55:58;;;;;;;1.73;1.60;;;11.10;99.90;;;;;;5061072;28;20878;-75
2023/05/02 03:58:26;;;;;;;1.20;1.10;;;11.10;99.90;;;;;;5054412;28;20501;-78
2023/05/02 04:00:53;;;;;;;2.13;1.90;;;11.20;99.90;;;;;;5064971;28;20448;-75
2023/05/02 04:03:21;;;;;;;2.40;1.83;;;11.20;99.90;;;;;;5055788;28;20457;-77
2023/05/02 04:05:48;;;;;;;1.70;1.60;;;11.20;99.90;;;;;;5056603;28;20572;-76
2023/05/02 04:08:16;;;;;;;2.23;1.77;;;11.20;99.90;;;;;;5057350;28;20978;-75
2023/05/02 04:10:43;;;;;;;2.37;1.93;;;11.20;99.90;;;;;;5057370;28;20523;-76
2023/05/02 04:13:11;;;;;;;1.93;1.57;;;11.20;99.90;;;;;;5062128;28;20842;-75
2023/05/02 04:15:38;;;;;;;2.23;2.03;;;11.30;99.90;;;;;;5062190;28;20471;-77
2023/05/02 04:18:05;;;;;;;2.07;1.97;;;11.20;99.90;;;;;;5062510;28;20444;-76
2023/05/02 04:20:32;;;;;;;1.97;1.87;;;11.30;99.90;;;;;;5063322;28;20907;-75
2023/05/02 04:22:59;;;;;;;2.40;2.20;;;11.30;99.90;;;;;;5056042;28;20456;-77
2023/05/02 04:25:27;;;;;;;1.90;1.70;;;11.20;99.90;;;;;;5060648;28;20452;-75
2023/05/02 04:27:54;;;;;;;1.53;1.43;;;11.20;99.90;;;;;;5064322;28;20441;-75
2023/05/02 04:30:22;;;;;;;2.47;2.27;;;11.20;99.90;;;;;;5060503;28;20564;-79
2023/05/02 04:32:49;;;;;;;2.43;2.23;;;11.20;99.90;;;;;;5046762;28;20445;-75
2023/05/02 04:35:16;;;;;;;4.33;2.50;;;11.20;99.90;;;;;;5051759;28;20437;-79
2023/05/02 04:37:43;;;;;;;2.60;2.23;;;11.20;99.90;;;;;;5049248;28;20499;-75
2023/05/02 04:40:11;;;;;;;2.83;2.53;;;11.30;99.90;;;;;;5058482;28;20551;-77
2023/05/02 04:42:38;;;;;;;2.07;1.93;;;11.30;99.90;;;;;;5071145;28;21099;-76
2023/05/02 04:45:06;;;;;;;2.27;2.17;;;11.30;99.90;;;;;;5064254;28;20472;-78
2023/05/02 04:47:35;;;;;;;2.03;1.83;;;11.30;99.90;;;;;;5066192;28;20553;-78
2023/05/02 04:50:02;;;;;;;2.27;2.17;;;11.30;99.90;;;;;;5063884;28;22518;-79
2023/05/02 04:52:30;;;;;;;2.07;1.97;;;11.30;99.90;;;;;;5068756;28;20440;-75
2023/05/02 04:54:57;;;;;;;7.27;6.43;;;11.30;99.90;;;;;;5062049;28;20529;-78
2023/05/02 04:57:23;;;;;;;8.97;7.10;;;11.40;99.90;;;;;;5075142;28;20551;-75
2023/05/02 04:59:50;;;;;;;15.27;11.90;;;11.40;99.90;;;;;;5076785;28;20470;-74
2023/05/02 05:02:17;;;;;;;37.13;20.07;;;11.50;99.90;;;;;;5073135;28;20464;-75
2023/05/02 05:04:46;;;;;;;91.83;40.50;;;11.50;99.90;;;;;;5070806;28;20517;-75
2023/05/02 05:07:13;;;;;;;55.17;28.73;;;11.50;99.90;;;;;;5068383;28;20553;-75
2023/05/02 05:09:39;;;;;;;19.50;11.33;;;11.60;99.90;;;;;;5069403;28;20444;-76
2023/05/02 05:12:07;;;;;;;11.20;7.77;;;11.70;99.90;;;;;;5067345;28;20460;-75
2023/05/02 05:14:34;;;;;;;11.03;7.53;;;11.70;99.90;;;;;;5066098;28;20452;-75
2023/05/02 05:17:01;;;;;;;17.07;11.30;;;11.70;99.90;;;;;;5067113;28;20581;-75
2023/05/02 05:19:28;;;;;;;20.27;12.67;;;11.70;99.90;;;;;;5064775;28;20625;-76
2023/05/02 05:21:56;;;;;;;13.30;9.63;;;11.70;99.90;;;;;;5065095;28;20432;-77
2023/05/02 05:24:23;;;;;;;12.20;8.83;;;11.70;99.90;;;;;;5062220;28;20457;-77
2023/05/02 05:26:50;;;;;;;11.10;6.57;;;11.70;99.90;;;;;;5066604;28;20533;-76
2023/05/02 05:29:17;;;;;;;8.73;6.93;;;11.70;99.90;;;;;;5064163;28;20460;-78
2023/05/02 05:31:44;;;;;;;8.00;5.50;;;11.70;99.90;;;;;;5068017;28;20459;-76
2023/05/02 05:34:11;;;;;;;23.73;14.27;;;11.80;99.90;;;;;;5062461;28;20472;-77
2023/05/02 05:36:40;;;;;;;14.57;9.70;;;11.80;99.90;;;;;;5059578;28;20563;-76
2023/05/02 05:39:09;;;;;;;8.27;5.97;;;11.80;99.90;;;;;;5065088;28;20510;-76
2023/05/02 05:41:37;;;;;;;3.60;3.30;;;11.80;99.90;;;;;;5067504;28;20474;-78
2023/05/02 05:44:04;;;;;;;2.70;2.50;;;11.90;99.90;;;;;;5059384;28;20974;-76
2023/05/02 05:46:31;;;;;;;2.80;2.60;;;11.90;99.90;;;;;;5063470;28;20522;-76
2023/05/02 05:48:58;;;;;;;3.13;2.93;;;11.80;99.90;;;;;;5068213;28;20471;-79
2023/05/02 05:51:26;;;;;;;3.73;3.47;;;11.80;99.90;;;;;;5067645;28;20458;-78
2023/05/02 05:53:55;;;;;;;3.77;3.47;;;11.80;99.90;;;;;;5064815;28;20591;-76
2023/05/02 05:56:23;;;;;;;4.20;3.90;;;11.80;99.90;;;;;;5060451;28;20473;-79
2023/05/02 05:58:50;;;;;;;4.53;4.10;;;11.80;99.90;;;;;;5061114;28;20832;-75
2023/05/02 06:01:17;;;;;;;3.83;3.30;;;11.80;99.90;;;;;;5062551;28;21018;-76
2023/05/02 06:03:44;;;;;;;3.20;3.00;;;11.80;99.90;;;;;;5059813;28;20468;-76
2023/05/02 06:06:11;;;;;;;3.83;3.47;;;11.80;99.90;;;;;;5060483;28;20995;-76
2023/05/02 06:08:38;;;;;;;7.20;4.40;;;11.80;99.90;;;;;;5064073;28;20468;-77
2023/05/02 06:11:09;;;;;;;3.67;3.37;;;11.80;99.90;;;;;;5057631;28;21032;-77
2023/05/02 06:13:37;;;;;;;4.37;3.70;;;11.80;99.90;;;;;;5055060;28;20524;-76
2023/05/02 06:16:05;;;;;;;9.40;3.10;;;11.90;99.90;;;;;;5060620;28;20525;-77
2023/05/02 06:18:32;;;;;;;4.60;3.40;;;11.90;99.90;;;;;;5071181;28;20451;-76
2023/05/02 06:21:04;;;;;;;3.77;3.47;;;11.90;99.90;;;;;;5075664;28;20922;-77
2023/05/02 06:23:31;;;;;;;3.77;3.47;;;12.00;99.90;;;;;;5063916;28;20428;-77
2023/05/02 06:26:01;;;;;;;3.77;3.47;;;12.00;99.90;;;;;;5057447;28;20456;-76
2023/05/02 06:28:28;;;;;;;3.67;3.47;;;12.10;99.90;;;;;;5061414;28;20476;-76
2023/05/02 06:31:00;;;;;;;4.17;3.40;;;12.20;99.90;;;;;;5063687;28;20476;-79
2023/05/02 06:33:27;;;;;;;4.23;3.90;;;12.20;99.90;;;;;;5064012;28;20445;-76
2023/05/02 06:35:54;;;;;;;3.73;3.33;;;12.30;99.90;;;;;;5062785;28;21087;-77
2023/05/02 06:38:22;;;;;;;2.97;2.77;;;12.50;99.90;;;;;;5064188;28;20456;-76
2023/05/02 06:40:49;;;;;;;3.73;3.37;;;12.50;99.90;;;;;;5064494;28;20788;-77
2023/05/02 06:43:16;;;;;;;3.40;3.10;;;12.50;99.90;;;;;;5061264;28;20437;-77
2023/05/02 06:45:44;;;;;;;3.40;3.20;;;12.50;99.90;;;;;;5065483;28;20504;-78
2023/05/02 06:48:12;;;;;;;5.10;3.23;;;12.40;99.90;;;;;;5065188;28;20549;-76
2023/05/02 06:50:39;;;;;;;3.50;3.20;;;12.60;99.90;;;;;;5064328;28;20441;-76
2023/05/02 06:53:06;;;;;;;4.03;3.73;;;12.70;99.90;;;;;;5058013;28;20480;-77
2023/05/02 06:55:33;;;;;;;4.60;4.27;;;12.70;99.90;;;;;;5051336;28;20494;-77
2023/05/02 06:58:00;;;;;;;3.23;3.00;;;12.60;99.90;;;;;;5061584;28;20447;-76
2023/05/02 07:00:27;;;;;;;4.23;3.83;;;12.60;99.90;;;;;;5061869;28;20876;-77
2023/05/02 07:02:55;;;;;;;4.53;4.13;;;12.60;99.90;;;;;;5060584;28;20517;-77
2023/05/02 07:05:23;;;;;;;4.17;3.87;;;12.70;99.90;;;;;;5063090;28;20531;-76
2023/05/02 07:07:50;;;;;;;4.57;4.17;;;12.60;99.90;;;;;;5064790;28;20484;-78
2023/05/02 07:10:17;;;;;;;3.63;3.43;;;12.70;99.90;;;;;;5059231;28;20455;-76
2023/05/02 07:12:44;;;;;;;6.07;5.57;;;12.90;99.90;;;;;;5066402;28;20449;-77
2023/05/02 07:15:12;;;;;;;5.30;4.77;;;13.00;99.90;;;;;;5063757;28;20453;-79
2023/05/02 07:17:39;;;;;;;4.97;3.77;;;13.20;99.90;;;;;;5064791;28;21125;-77
2023/05/02 07:20:08;;;;;;;4.90;4.50;;;13.30;99.90;;;;;;5061377;28;20457;-76
2023/05/02 07:22:36;;;;;;;5.23;4.83;;;13.40;99.90;;;;;;5064959;28;20519;-79
2023/05/02 07:25:04;;;;;;;5.70;5.20;;;13.40;99.90;;;;;;5053556;28;20542;-77
2023/05/02 07:27:31;;;;;;;4.70;4.37;;;13.60;99.90;;;;;;5061654;28;20476;-77
2023/05/02 07:29:58;;;;;;;6.70;6.03;;;13.50;99.90;;;;;;5066589;28;20844;-76
2023/05/02 07:32:25;;;;;;;6.30;5.80;;;13.40;99.90;;;;;;5066937;28;20459;-77
2023/05/02 07:34:54;;;;;;;6.30;5.43;;;13.40;99.90;;;;;;5063142;28;20460;-77
2023/05/02 07:37:21;;;;;;;5.30;4.80;;;13.60;99.90;;;;;;5051237;28;20559;-76
2023/05/02 07:39:50;;;;;;;5.17;4.77;;;13.60;99.90;;;;;;5065125;28;20506;-77
2023/05/02 07:42:17;;;;;;;6.30;5.80;;;13.50;99.90;;;;;;5062844;28;20470;-76
2023/05/02 07:44:44;;;;;;;6.90;6.30;;;13.80;99.90;;;;;;5056090;28;20444;-78
2023/05/02 07:47:11;;;;;;;7.70;7.10;;;14.00;99.90;;;;;;5065808;28;20548;-75
2023/05/02 07:49:38;;;;;;;6.90;5.87;;;13.90;99.90;;;;;;5060181;28;20585;-76
2023/05/02 07:52:05;;;;;;;6.93;6.37;;;14.00;99.90;;;;;;5060748;28;20436;-77
2023/05/02 07:54:32;;;;;;;9.13;8.17;;;14.00;99.90;;;;;;5060479;28;20553;-76
2023/05/02 07:57:02;;;;;;;7.57;6.93;;;14.20;99.90;;;;;;5061581;28;21161;-78
2023/05/02 07:59:30;;;;;;;6.23;5.70;;;14.40;99.90;;;;;;5057734;28;20483;-76
2023/05/02 08:01:57;;;;;;;6.77;6.17;;;14.30;99.90;;;;;;5059341;28;20474;-76
2023/05/02 08:04:24;;;;;;;7.23;5.93;;;14.30;99.90;;;;;;5059550;28;20441;-76
2023/05/02 08:06:51;;;;;;;7.50;6.20;;;14.20;99.90;;;;;;5067278;28;20601;-76
2023/05/02 08:09:18;;;;;;;7.13;6.43;;;14.20;99.90;;;;;;5059490;28;20456;-76
2023/05/02 08:11:45;;;;;;;6.63;5.90;;;14.20;99.90;;;;;;5062944;28;20816;-76
2023/05/02 08:14:14;;;;;;;7.13;6.43;;;14.10;99.90;;;;;;5079583;28;20482;-76
2023/05/02 08:16:42;;;;;;;6.90;6.40;;;14.20;99.90;;;;;;5064532;28;20540;-76
2023/05/02 08:19:09;;;;;;;7.30;6.70;;;14.40;99.90;;;;;;5062279;28;20441;-75
2023/05/02 08:21:36;;;;;;;7.57;6.87;;;14.70;99.90;;;;;;5059274;28;20453;-84
2023/05/02 08:24:03;;;;;;;7.03;6.43;;;14.70;99.90;;;;;;5062269;28;20436;-77
2023/05/02 08:26:30;;;;;;;7.23;6.60;;;14.50;99.90;;;;;;5060812;28;20436;-77
2023/05/02 08:28:57;;;;;;;6.77;6.30;;;14.50;99.90;;;;;;5060740;28;20879;-77
2023/05/02 08:31:25;;;;;;;9.93;8.93;;;14.60;99.90;;;;;;5072023;28;20493;-79
2023/05/02 08:33:52;;;;;;;8.37;7.67;;;14.70;99.90;;;;;;5064521;28;20451;-78
2023/05/02 08:36:19;;;;;;;8.00;7.30;;;14.70;99.90;;;;;;5068096;28;20448;-76
2023/05/02 08:38:47;;;;;;;7.70;6.87;;;14.70;99.90;;;;;;5065613;28;20457;-77
2023/05/02 08:41:15;;;;;;;7.93;7.17;;;14.70;99.90;;;;;;5054952;28;20875;-77
2023/05/02 08:43:42;;;;;;;9.70;8.80;;;14.40;99.90;;;;;;5053993;28;21209;-77
2023/05/02 08:46:10;;;;;;;8.30;7.70;;;14.40;99.90;;;;;;5066176;28;20505;-76
2023/05/02 08:48:41;;;;;;;8.20;7.50;;;14.60;99.90;;;;;;5068362;28;20530;-77
2023/05/02 08:51:10;;;;;;;8.33;7.70;;;14.50;99.90;;;;;;5052857;28;20558;-77
2023/05/02 08:53:38;;;;;;;8.50;7.43;;;14.70;99.90;;;;;;5052580;28;20444;-76
2023/05/02 08:56:07;;;;;;;9.60;8.60;;;14.50;99.90;;;;;;5065652;28;20451;-79
2023/05/02 08:58:35;;;;;;;8.40;7.77;;;14.30;99.90;;;;;;5064103;28;20433;-79
2023/05/02 09:01:04;;;;;;;7.63;6.93;;;14.60;99.90;;;;;;5064405;28;20440;-79
2023/05/02 09:03:32;;;;;;;7.50;6.90;;;14.70;99.90;;;;;;5056327;28;20510;-76
2023/05/02 09:06:07;;;;;;;8.77;8.00;;;14.50;99.90;;;;;;5060974;28;20509;-76
2023/05/02 09:08:35;;;;;;;7.70;7.10;;;14.50;99.90;;;;;;5061042;28;20484;-78
2023/05/02 09:11:02;;;;;;;7.90;7.27;;;14.40;99.90;;;;;;5062498;28;20520;-78
2023/05/02 09:13:31;;;;;;;8.93;8.07;;;14.40;99.90;;;;;;5059158;28;20502;-77
2023/05/02 09:15:59;;;;;;;6.87;6.27;;;14.70;99.90;;;;;;5060679;28;20490;-78
2023/05/02 09:18:29;;;;;;;7.10;6.60;;;14.90;99.90;;;;;;5065902;28;20496;-77
2023/05/02 09:20:56;;;;;;;7.07;6.40;;;14.90;99.90;;;;;;5068769;28;20436;-78
2023/05/02 09:23:34;;;;;;;7.60;7.00;;;15.00;99.90;;;;;;5067634;28;21100;-78
2023/05/02 09:26:01;;;;;;;7.37;6.77;;;15.10;99.90;;;;;;5066081;28;20539;-77
2023/05/02 09:28:42;;;;;;;6.50;6.10;;;15.20;99.90;;;;;;5066739;28;20507;-78
2023/05/02 09:31:10;;;;;;;7.73;7.17;;;15.20;99.90;;;;;;5067865;28;20814;-79
2023/05/02 09:33:38;;;;;;;8.73;7.90;;;15.10;99.90;;;;;;5067284;28;20927;-78
2023/05/02 09:36:07;;;;;;;7.53;6.83;;;15.30;99.90;;;;;;5067918;28;20465;-78
2023/05/02 09:38:35;;;;;;;7.40;6.90;;;15.30;99.90;;;;;;5067292;28;20848;-78
2023/05/02 09:41:03;;;;;;;6.97;6.37;;;15.50;99.90;;;;;;5066579;28;22517;-79
2023/05/02 09:43:31;;;;;;;8.03;7.37;;;15.10;99.90;;;;;;5069176;28;20481;-77
2023/05/02 09:45:59;;;;;;;6.33;5.93;;;15.10;99.90;;;;;;5065151;28;20479;-77
2023/05/02 09:48:28;;;;;;;7.30;6.60;;;15.00;99.90;;;;;;5061569;28;20495;-77
2023/05/02 09:50:55;;;;;;;7.23;6.73;;;15.40;99.90;;;;;;5064987;28;20904;-78
2023/05/02 09:53:22;;;;;;;7.40;6.80;;;15.60;99.90;;;;;;5064302;28;20444;-76
2023/05/02 09:56:00;;;;;;;7.20;6.60;;;15.60;99.90;;;;;;5065963;28;20452;-78
2023/05/02 09:58:27;;;;;;;8.60;7.83;;;15.40;99.90;;;;;;5064341;28;20462;-79
2023/05/02 10:00:54;;;;;;;8.50;7.80;;;15.40;99.90;;;;;;5068645;28;20947;-79
2023/05/02 10:03:25;;;;;;;7.80;7.20;;;15.40;99.90;;;;;;5060961;28;21010;-80
2023/05/02 10:05:53;;;;;;;8.17;7.47;;;15.20;99.90;;;;;;5065291;28;20519;-79
2023/05/02 10:08:21;;;;;;;7.83;7.10;;;15.30;99.90;;;;;;5062108;28;20485;-77
2023/05/02 10:10:54;;;;;;;7.37;6.87;;;15.40;99.90;;;;;;5066366;28;20544;-77
2023/05/02 10:13:23;;;;;;;8.00;7.10;;;15.20;99.90;;;;;;5050525;28;20444;-77
2023/05/02 10:16:01;;;;;;;8.17;7.43;;;15.30;99.90;;;;;;5060213;28;20609;-77
2023/05/02 10:18:33;;;;;;;7.67;7.00;;;15.40;99.90;;;;;;5053721;28;20449;-79
2023/05/02 10:21:08;;;;;;;8.80;8.10;;;15.50;99.90;;;;;;5062875;28;20453;-77
2023/05/02 10:23:35;;;;;;;8.77;8.07;;;15.70;99.90;;;;;;5059803;28;20515;-80
2023/05/02 10:26:04;;;;;;;8.47;7.77;;;15.60;99.90;;;;;;5058721;28;20482;-80
2023/05/02 10:28:31;;;;;;;8.20;7.50;;;15.50;99.90;;;;;;5060212;28;20824;-76
2023/05/02 10:31:00;;;;;;;7.73;7.17;;;15.20;99.90;;;;;;5066969;28;20594;-78
2023/05/02 10:33:30;;;;;;;8.13;7.53;;;15.30;99.90;;;;;;5059500;28;20497;-79
2023/05/02 10:35:57;;;;;;;7.87;7.20;;;15.20;99.90;;;;;;5058893;28;20478;-78
2023/05/02 10:38:25;;;;;;;7.83;7.17;;;15.30;99.90;;;;;;5056656;28;20456;-79
2023/05/02 10:40:55;;;;;;;7.77;7.00;;;15.50;99.90;;;;;;5064379;28;20506;-79
2023/05/02 10:43:31;;;;;;;7.03;6.53;;;15.50;99.90;;;;;;5066517;28;20454;-78
2023/05/02 10:45:58;;;;;;;7.83;7.23;;;15.40;99.90;;;;;;5067389;28;20807;-78
2023/05/02 10:48:27;;;;;;;9.47;8.50;;;15.50;99.90;;;;;;5061205;28;20484;-77
2023/05/02 10:50:55;;;;;;;8.20;7.60;;;15.50;99.90;;;;;;5066722;28;20445;-77
2023/05/02 10:53:29;;;;;;;9.70;8.27;;;15.40;99.90;;;;;;5067770;28;20531;-80
2023/05/02 10:56:20;;;;;;;8.93;8.23;;;15.20;99.90;;;;;;5066763;28;20436;-79
2023/05/02 10:58:49;;;;;;;8.40;7.70;;;14.80;99.90;;;;;;5066851;28;20456;-77
2023/05/02 11:01:38;;;;;;;8.87;8.07;;;14.80;99.90;;;;;;5068089;28;20467;-77
2023/05/02 11:04:07;;;;;;;8.00;7.20;;;14.80;99.90;;;;;;5063715;28;20468;-77
2023/05/02 11:06:35;;;;;;;9.57;8.80;;;15.00;99.90;;;;;;5067198;28;20502;-80
2023/05/02 11:09:31;;;;;;;8.67;7.90;;;15.10;99.90;;;;;;5067213;28;20791;-77
2023/05/02 11:12:00;;;;;;;9.00;8.33;;;15.40;99.90;;;;;;5064829;28;20440;-76
2023/05/02 11:14:50;;;;;;;9.30;8.20;;;15.30;99.90;;;;;;5067951;28;20448;-78
2023/05/02 11:17:18;;;;;;;7.80;7.20;;;15.60;99.90;;;;;;5050791;28;20792;-77
2023/05/02 11:20:25;;;;;;;9.77;8.93;;;15.80;99.90;;;;;;5064619;28;20444;-78
2023/05/02 11:22:54;;;;;;;8.30;7.70;;;16.00;99.90;;;;;;5064633;28;20452;-77
2023/05/02 11:25:39;;;;;;;10.30;9.60;;;16.00;99.90;;;;;;5071036;28;21142;-77
2023/05/02 11:28:09;;;;;;;8.50;7.80;;;16.50;99.90;;;;;;5073005;28;20529;-80
2023/05/02 11:30:47;;;;;;;8.03;7.40;;;16.50;99.90;;;;;;5078459;28;20555;-77
2023/05/02 11:33:18;;;;;;;8.93;8.13;;;16.20;99.90;;;;;;5073834;28;20436;-77
2023/05/02 11:35:47;;;;;;;8.80;8.10;;;15.90;99.90;;;;;;5067958;28;20473;-77
2023/05/02 11:38:17;;;;;;;8.10;7.50;;;15.60;99.90;;;;;;5068775;28;20509;-80
2023/05/02 11:40:54;;;;;;;8.83;8.20;;;15.70;99.90;;;;;;5052222;28;20450;-78
2023/05/02 11:43:23;;;;;;;9.90;9.10;;;15.60;99.90;;;;;;5064288;28;20568;-79
2023/05/02 11:45:52;;;;;;;9.80;9.10;;;15.20;99.90;;;;;;5063506;28;20456;-77
2023/05/02 11:48:21;;;;;;;8.30;7.60;;;15.30;99.90;;;;;;5066314;28;20492;-80
2023/05/02 11:50:49;;;;;;;9.03;8.37;;;15.30;99.90;;;;;;5066894;28;20486;-79
2023/05/02 11:53:18;;;;;;;10.03;9.20;;;15.10;99.90;;;;;;5056818;28;20523;-78
2023/05/02 11:55:49;;;;;;;10.20;9.50;;;15.00;99.90;;;;;;5060194;28;20452;-80
2023/05/02 11:58:18;;;;;;;9.57;8.77;;;15.00;99.90;;;;;;5061461;28;20527;-78
2023/05/02 12:00:46;;;;;;;12.33;11.40;;;15.10;99.90;;;;;;5065625;28;20943;-77
2023/05/02 12:03:31;;;;;;;8.50;7.83;;;14.70;99.90;;;;;;5065293;28;20471;-77
2023/05/02 12:06:09;;;;;;;8.77;7.97;;;14.50;99.90;;;;;;5065151;28;20440;-77
2023/05/02 12:08:36;;;;;;;10.13;9.33;;;14.40;99.90;;;;;;5053261;28;20985;-77
2023/05/02 12:11:03;;;;;;;9.33;8.73;;;14.50;99.90;;;;;;5066137;28;20468;-78
2023/05/02 12:13:31;;;;;;;10.40;9.30;;;14.70;99.90;;;;;;5066170;28;20972;-77
2023/05/02 12:15:58;;;;;;;8.60;7.90;;;14.60;99.90;;;;;;5066352;28;20472;-77
2023/05/02 12:18:27;;;;;;;10.27;9.50;;;14.60;99.90;;;;;;5055695;28;20460;-78
2023/05/02 12:20:56;;;;;;;10.10;9.30;;;14.60;99.90;;;;;;5066491;28;20806;-79
2023/05/02 12:23:26;;;;;;;9.07;8.37;;;14.40;99.90;;;;;;5062629;28;20444;-80
2023/05/02 12:25:53;;;;;;;9.27;8.47;;;14.20;99.90;;;;;;5065802;28;20539;-77
2023/05/02 12:28:22;;;;;;;10.33;9.43;;;14.10;99.90;;;;;;5058044;28;20480;-78
2023/05/02 12:30:51;;;;;;;8.53;7.70;;;14.10;99.90;;;;;;5055235;28;20478;-80
2023/05/02 12:33:18;;;;;;;11.07;10.07;;;14.00;99.90;;;;;;5059269;28;20517;-78
2023/05/02 12:35:46;;;;;;;9.83;9.03;;;13.90;99.90;;;;;;5059275;28;20827;-77
2023/05/02 12:38:17;;;;;;;11.57;10.57;;;14.00;99.90;;;;;;5060230;28;20436;-77
2023/05/02 12:40:49;;;;;;;10.90;10.00;;;14.10;99.90;;;;;;5060077;28;21025;-77
2023/05/02 12:43:17;;;;;;;10.73;9.90;;;14.40;99.90;;;;;;5066124;28;20498;-80
2023/05/02 12:45:44;;;;;;;11.13;10.00;;;14.50;99.90;;;;;;5064307;28;20521;-78
2023/05/02 12:48:25;;;;;;;11.27;10.37;;;14.80;99.90;;;;;;5065731;28;20472;-77
2023/05/02 12:50:53;;;;;;;9.87;8.97;;;15.10;99.90;;;;;;5066318;28;20500;-79
2023/05/02 12:53:40;;;;;;;9.63;8.83;;;15.00;99.90;;;;;;5062440;28;20504;-81
2023/05/02 12:56:07;;;;;;;9.90;9.10;;;15.00;99.90;;;;;;5059846;28;20935;-77